»·PEaware :: SWA3496 KLAX-KPHX

SWA3496 :: KLAX-KPHX

FLIGHT INFORMATION

Flight Status: Arrived
Operator:
Southwest Airlines
More flights by this operator :: More flights under this callsign
Pilot: Cody B. (17747)
Aircraft: BOEING 737-800
(B738)
More flights by this aircraft type
Origin: KLAX Los Angeles Intl
United States
Destination: KPHX Phoenix Sky Harbor Intl
United States
More flights between these airports :: More routes between these airports
Route: +DOTSS2 CNERY BLH HYDRR1
File this flight plan on PilotEdge
Remarks:
Altitude:
(Current/Filed)
35,000ft
Speed:
(Current/Filed)
465kts
Departed: 07-Jul-18 02:45 PM
Arrived: 07-Jul-18 03:47 PM
Distance/Time
Traveled:
321nm/1:02
Distance/Time
To Go:
Arrived

Flight Plot

Page will automatically refresh every two minutes.

Flight plan parsing failed; only flown route is shown


Map Options




Map Legend


Flown Route
Filed Route
Departure Airport
Arrival Airport
Navaid (VOR, NDB)
Fix

Horizontal Profiles

Position Reports

Time Latitude Longitude Heading Altitude Ground
Speed
07-Jul-18 14:04 33.947063 -118.401806 92 133ft 0kts
07-Jul-18 14:05 33.947063 -118.401806 92 133ft 0kts
07-Jul-18 14:06 33.947063 -118.401806 92 133ft 0kts
07-Jul-18 14:07 33.947063 -118.401806 92 133ft 0kts
07-Jul-18 14:08 33.947063 -118.401806 92 133ft 0kts
07-Jul-18 14:09 33.947063 -118.401806 92 133ft 0kts
07-Jul-18 14:10 33.947063 -118.401806 92 133ft 0kts
07-Jul-18 14:11 33.947063 -118.401806 92 133ft 0kts
07-Jul-18 14:12 33.947063 -118.401806 92 133ft 0kts
07-Jul-18 14:13 33.947063 -118.401806 92 133ft 0kts
07-Jul-18 14:14 33.947063 -118.401806 92 133ft 0kts
07-Jul-18 14:15 33.947063 -118.401806 92 133ft 0kts
07-Jul-18 14:16 33.947063 -118.401806 92 133ft 0kts
07-Jul-18 14:17 33.947063 -118.401806 92 133ft 0kts
07-Jul-18 14:18 33.947063 -118.401806 92 133ft 0kts
07-Jul-18 14:19 33.947063 -118.401806 92 133ft 0kts
07-Jul-18 14:20 33.947063 -118.401806 92 133ft 0kts
07-Jul-18 14:21 33.947063 -118.401806 92 133ft 0kts
07-Jul-18 14:22 33.947063 -118.401806 92 133ft 0kts
07-Jul-18 14:23 33.947063 -118.401806 92 133ft 0kts
07-Jul-18 14:24 33.947063 -118.401806 92 133ft 0kts
07-Jul-18 14:25 33.947063 -118.401806 92 133ft 0kts
07-Jul-18 14:26 33.947063 -118.401806 92 133ft 0kts
07-Jul-18 14:27 33.947063 -118.401806 92 133ft 0kts
07-Jul-18 14:28 33.947063 -118.401806 92 133ft 0kts
07-Jul-18 14:29 33.947063 -118.401806 92 133ft 0kts
07-Jul-18 14:30 33.947063 -118.401806 92 133ft 0kts
07-Jul-18 14:31 33.947063 -118.401806 92 133ft 0kts
07-Jul-18 14:32 33.947063 -118.401806 92 133ft 0kts
07-Jul-18 14:33 33.947063 -118.401806 92 133ft 0kts
07-Jul-18 14:34 33.947063 -118.401807 92 133ft 0kts
07-Jul-18 14:35 33.947073 -118.402058 91 133ft 1kts
07-Jul-18 14:36 33.946731 -118.402466 354 132ft 1kts
07-Jul-18 14:37 33.946671 -118.402455 353 132ft 0kts
07-Jul-18 14:38 33.946674 -118.402455 353 132ft 0kts
07-Jul-18 14:39 33.947501 -118.402574 353 133ft 3kts
07-Jul-18 14:40 33.947655 -118.402596 353 133ft 0kts
07-Jul-18 14:41 33.948215 -118.402743 339 133ft 7kts
07-Jul-18 14:42 33.949246 -118.401669 4 133ft 0kts
07-Jul-18 14:43 33.949246 -118.401669 4 133ft 0kts
07-Jul-18 14:44 33.949429 -118.401665 358 133ft 3kts
07-Jul-18 14:45 33.949957 -118.403800 263 133ft 33kts
07-Jul-18 14:46 33.945345 -118.449572 262 1172ft 182kts
07-Jul-18 14:47 33.941118 -118.514584 265 3480ft 213kts
07-Jul-18 14:48 33.934414 -118.590195 264 5742ft 245kts
07-Jul-18 14:49 33.885635 -118.638046 178 7886ft 273kts
07-Jul-18 14:50 33.811589 -118.612482 146 10183ft 294kts
07-Jul-18 14:51 33.740159 -118.554775 146 12090ft 326kts
07-Jul-18 14:52 33.683542 -118.471449 110 14382ft 338kts
07-Jul-18 14:53 33.651823 -118.365400 110 16705ft 345kts
07-Jul-18 14:54 33.644124 -118.249941 90 18718ft 352kts
07-Jul-18 14:55 33.644196 -118.132880 90 20494ft 364kts
07-Jul-18 14:56 33.644141 -118.011251 91 22181ft 374kts
07-Jul-18 14:57 33.643934 -117.886467 91 23669ft 383kts
07-Jul-18 14:58 33.635757 -117.760177 106 25152ft 388kts
07-Jul-18 14:59 33.605382 -117.635929 106 26511ft 395kts
07-Jul-18 15:00 33.574326 -117.510647 106 27759ft 402kts
07-Jul-18 15:01 33.542276 -117.381776 106 28921ft 409kts
07-Jul-18 15:02 33.510161 -117.253261 106 30241ft 407kts
07-Jul-18 15:03 33.502905 -117.119212 91 31520ft 405kts
07-Jul-18 15:04 33.501060 -116.985442 91 32607ft 403kts
07-Jul-18 15:05 33.499091 -116.852137 92 33560ft 402kts
07-Jul-18 15:06 33.497049 -116.719429 91 34414ft 400kts
07-Jul-18 15:07 33.494784 -116.585744 91 34887ft 408kts
07-Jul-18 15:08 33.492262 -116.446135 91 34808ft 433kts
07-Jul-18 15:09 33.490017 -116.301605 91 34799ft 442kts
07-Jul-18 15:10 33.487733 -116.154765 91 34799ft 443kts
07-Jul-18 15:11 33.493803 -116.008309 73 34827ft 444kts
07-Jul-18 15:12 33.534050 -115.868552 71 34798ft 444kts
07-Jul-18 15:13 33.574813 -115.728831 71 34798ft 445kts
07-Jul-18 15:14 33.615253 -115.589517 71 34798ft 442kts
07-Jul-18 15:15 33.617151 -115.445250 94 34800ft 439kts
07-Jul-18 15:16 33.610951 -115.300524 92 34839ft 440kts
07-Jul-18 15:17 33.606695 -115.154731 92 34844ft 438kts
07-Jul-18 15:18 33.602831 -115.008468 91 34842ft 438kts
07-Jul-18 15:19 33.600018 -114.861948 92 34843ft 439kts
07-Jul-18 15:20 33.588316 -114.717287 102 34857ft 437kts
07-Jul-18 15:21 33.554145 -114.578265 107 34838ft 438kts
07-Jul-18 15:22 33.528473 -114.434090 99 31586ft 443kts
07-Jul-18 15:23 33.503375 -114.294604 103 28793ft 414kts
07-Jul-18 15:24 33.478232 -114.165299 103 26384ft 408kts
07-Jul-18 15:25 33.452748 -114.036251 103 24847ft 389kts
07-Jul-18 15:26 33.427455 -113.909525 103 24843ft 392kts
07-Jul-18 15:27 33.402066 -113.782992 103 24843ft 392kts
07-Jul-18 15:28 33.376212 -113.654576 103 21342ft 386kts
07-Jul-18 15:29 33.352219 -113.536267 103 19652ft 364kts
07-Jul-18 15:30 33.329444 -113.419978 101 18438ft 357kts
07-Jul-18 15:31 33.309884 -113.306160 101 17411ft 355kts
07-Jul-18 15:32 33.291008 -113.192120 99 16246ft 346kts
07-Jul-18 15:33 33.275797 -113.086157 99 15172ft 323kts
07-Jul-18 15:34 33.274142 -112.979769 87 13871ft 316kts
07-Jul-18 15:35 33.277711 -112.877358 88 12575ft 300kts
07-Jul-18 15:36 33.303663 -112.788572 50 11338ft 289kts
07-Jul-18 15:37 33.357040 -112.718576 49 10136ft 282kts
07-Jul-18 15:38 33.409208 -112.650155 49 8971ft 277kts
07-Jul-18 15:39 33.438526 -112.571407 88 7878ft 265kts
07-Jul-18 15:40 33.440272 -112.483795 90 6708ft 262kts
07-Jul-18 15:41 33.440823 -112.397739 91 5512ft 258kts
07-Jul-18 15:42 33.440873 -112.316002 92 5025ft 235kts
07-Jul-18 15:43 33.440853 -112.248419 91 4736ft 182kts
07-Jul-18 15:44 33.440885 -112.190527 91 3878ft 166kts
07-Jul-18 15:45 33.440878 -112.138476 90 2974ft 163kts
07-Jul-18 15:46 33.440985 -112.083712 89 2062ft 155kts
07-Jul-18 15:47 33.440820 -112.032718 88 1284ft 153kts
07-Jul-18 15:48 33.440602 -112.007629 132 1142ft 14kts
07-Jul-18 15:49 33.439691 -112.007382 183 1142ft 0kts
07-Jul-18 15:50 33.439680 -112.007287 85 1142ft 5kts
07-Jul-18 15:51 33.439095 -112.004256 105 1142ft 5kts
07-Jul-18 15:52 33.438635 -112.002646 149 1142ft 4kts
07-Jul-18 15:53 33.438315 -112.002425 150 1142ft 0kts
07-Jul-18 15:53 33.438315 -112.002425 150 1142ft 0kts
07-Jul-18 15:54 33.438315 -112.002425 150 1142ft 0kts

Navigation Log

Ident Type
Flight plan parsing failed, navigation log unavailable